Weather at Abbotsford Airport

Public forecast

Using degrees Celsius for public forecast. Weather courtesy of forecast.io.

Current aviation weather report (METAR) for Abbotsford Airport

Retrieved 2021/03/05 22:00 UTC (2 hours ago):

CYXX 052200Z 18014G21KT 25SM BKN038 BKN052 OVC120 11/04 A2989 RMK CU6SC1AS2 SH DIST E-SE SLP125

Aviation forecast (TAF) for Abbotsford Airport

Retrieved 2021/03/05 18:39 UTC (5 hours ago):

TAF CYXX 051738Z 0518/0618 VRB03KT P6SM SCT040 OVC080 TEMPO 0518/0520 P6SM -SHRA BKN040 OVC080 FM052000 18015G25KT P6SM -RA SCT030 OVC070 TEMPO 0520/0602 5SM -RA BR BKN020 OVC060 FM060200 19010KT P6SM FEW030 SCT080 FM061100 19008KT P6SM -SHRA BKN030 OVC060 TEMPO 0611/0618 4SM -SHRA BR FEW008 OVC020 RMK NXT FCST BY 060000Z